Time;durP1;ratioP1;P1;durP2;ratioP2;P2;SDS_P1;SDS_P2;PMS_P1;PMS_P2;Temp;Humidity;BMP_temperature;BMP_pressure;BME280_temperature;BME280_humidity;BME280_pressure;Samples;Min_cycle;Max_cycle;Signal;HPM_P1;HPM_P2
2022/03/30 10:35:56;;;;;;;19.58;8.73;;;;;;;10.88;59.88;99586.63;711307;27;20333;-78
2022/03/30 10:36:24;;;;;;;19.50;10.15;;;;;;;10.93;61.37;99598.75;708094;27;1214;-78
2022/03/30 10:37:09;;;;;;;19.13;10.55;;;;;;;10.79;60.14;99583.38;705116;27;1704;-79
2022/03/30 10:37:57;;;;;;;20.48;11.88;;;;;;;10.92;59.12;99587.41;704080;28;1197;-79
2022/03/30 10:38:17;;;;;;;20.63;12.40;;;;;;;10.94;59.85;99593.47;702624;28;1591;-78
2022/03/30 10:39:11;;;;;;;20.83;12.53;;;;;;;10.77;59.23;99585.16;690408;28;5280;-80
2022/03/30 10:39:31;;;;;;;20.42;13.05;;;;;;;10.61;57.07;99582.03;698769;28;1667;-79
2022/03/30 10:40:07;;;;;;;20.52;13.13;;;;;;;10.52;57.13;99581.34;696065;28;1330;-79
2022/03/30 10:40:28;;;;;;;22.02;12.98;;;;;;;10.51;58.55;99582.22;694009;28;1582;-79
2022/03/30 10:41:06;;;;;;;19.88;13.15;;;;;;;10.48;59.85;99578.81;695208;28;7227;-79
2022/03/30 10:42:05;;;;;;;20.58;13.27;;;;;;;10.48;59.05;99578.81;697518;28;1540;-79
2022/03/30 10:42:25;;;;;;;20.13;13.10;;;;;;;10.47;58.65;99575.34;700552;28;4704;-77
2022/03/30 10:42:45;;;;;;;20.30;13.70;;;;;;;10.47;58.86;99575.34;700491;28;1560;-77
2022/03/30 10:43:08;;;;;;;21.73;13.53;;;;;;;10.43;58.34;99578.91;700855;28;1499;-77
2022/03/30 10:43:30;;;;;;;20.02;13.43;;;;;;;10.41;57.97;99585.91;701803;28;1246;-77
2022/03/30 10:44:11;;;;;;;19.88;13.30;;;;;;;10.42;59.33;99579.81;698177;28;1505;-77
2022/03/30 10:44:46;;;;;;;21.63;13.90;;;;;;;10.37;59.22;99590.38;681842;28;1518;-77
2022/03/30 10:45:18;;;;;;;21.48;13.88;;;;;;;10.40;59.52;99571.16;681817;28;2290;-78
2022/03/30 10:45:43;;;;;;;20.58;13.50;;;;;;;10.50;61.60;99575.28;697335;28;1196;-77
2022/03/30 10:46:03;;;;;;;20.17;13.68;;;;;;;10.72;60.52;99580.03;701192;28;1867;-77
2022/03/30 10:46:36;;;;;;;20.25;13.68;;;;;;;10.98;59.64;99575.94;701086;28;1361;-77
2022/03/30 10:47:20;;;;;;;20.63;13.00;;;;;;;11.22;58.26;99570.13;696606;28;1040;-78
2022/03/30 10:48:22;;;;;;;19.50;13.35;;;;;;;11.27;59.39;99577.00;696123;28;5417;-78
2022/03/30 10:48:42;;;;;;;23.08;13.73;;;;;;;11.34;59.03;99568.09;697070;28;1366;-78
2022/03/30 10:49:40;;;;;;;21.57;13.60;;;;;;;11.36;60.40;99563.69;699672;28;1095;-78
2022/03/30 10:50:02;;;;;;;20.77;13.90;;;;;;;11.36;57.82;99563.69;699921;28;2209;-78
2022/03/30 10:50:46;;;;;;;21.50;14.15;;;;;;;11.31;58.21;99565.56;700281;28;928;-78
2022/03/30 10:51:06;;;;;;;22.20;13.60;;;;;;;11.32;57.99;99567.28;699399;28;4955;-78
2022/03/30 10:51:27;;;;;;;21.43;14.17;;;;;;;11.30;58.16;99567.31;698799;28;1544;-78
2022/03/30 10:52:26;;;;;;;23.30;14.38;;;;;;;11.35;57.94;99564.56;701350;28;1852;-78
2022/03/30 10:52:49;;;;;;;21.80;14.38;;;;;;;11.29;56.54;99573.44;701713;28;1804;-78
2022/03/30 10:53:31;;;;;;;20.27;13.73;;;;;;;11.41;56.55;99564.44;703075;28;1488;-79
2022/03/30 10:53:52;;;;;;;20.13;13.70;;;;;;;11.41;56.51;99569.66;696848;28;4983;-78
2022/03/30 10:54:29;;;;;;;20.38;13.75;;;;;;;11.40;56.84;99565.31;695345;28;1681;-78
2022/03/30 10:54:55;;;;;;;19.25;13.75;;;;;;;11.43;56.90;99562.63;699674;28;1772;-78
2022/03/30 10:55:39;;;;;;;19.55;13.43;;;;;;;11.52;57.55;99564.13;694964;28;6684;-78
2022/03/30 10:56:24;;;;;;;20.63;13.43;;;;;;;11.46;54.87;99565.16;695075;28;6644;-78
2022/03/30 10:56:49;;;;;;;19.80;13.18;;;;;;;11.30;55.31;99562.09;696974;28;1602;-78
2022/03/30 10:57:09;;;;;;;21.35;13.15;;;;;;;11.12;55.93;99565.16;697086;28;1796;-78
2022/03/30 10:58:02;;;;;;;22.83;13.97;;;;;;;11.10;57.94;99564.34;696892;28;7565;-77
2022/03/30 10:58:22;;;;;;;19.92;13.27;;;;;;;11.06;57.11;99560.94;696223;28;1373;-77
2022/03/30 10:58:48;;;;;;;21.80;13.50;;;;;;;11.15;57.71;99562.47;697022;28;4327;-77
2022/03/30 10:59:11;;;;;;;19.67;13.50;;;;;;;11.27;57.14;99556.06;695577;28;1467;-78
2022/03/30 10:59:31;;;;;;;20.83;13.68;;;;;;;11.23;56.82;99552.69;700504;28;1882;-77
2022/03/30 11:00:05;;;;;;;19.03;13.40;;;;;;;11.33;57.72;99563.78;696549;28;7235;-77
2022/03/30 11:00:38;;;;;;;19.95;12.93;;;;;;;11.50;56.67;99560.72;700748;28;1397;-77
2022/03/30 11:01:22;;;;;;;19.90;12.73;;;;;;;11.67;56.30;99557.63;703542;28;1673;-77
2022/03/30 11:01:49;;;;;;;19.33;12.65;;;;;;;11.66;55.92;99563.75;702675;27;4337;-77
2022/03/30 11:02:13;;;;;;;18.27;12.40;;;;;;;11.87;54.63;99560.56;699346;28;1437;-77
2022/03/30 11:02:40;;;;;;;20.23;13.18;;;;;;;11.89;56.16;99556.16;693808;28;3207;-77
2022/03/30 11:03:12;;;;;;;19.75;13.52;;;;;;;11.80;56.86;99553.78;699636;28;1283;-77
2022/03/30 11:04:06;;;;;;;19.75;13.63;;;;;;;11.57;54.85;99555.28;697076;28;1693;-77
2022/03/30 11:04:27;;;;;;;19.52;13.48;;;;;;;11.43;56.79;99565.25;699581;28;2185;-78
2022/03/30 11:04:47;;;;;;;19.88;12.88;;;;;;;11.53;57.16;99558.88;696266;28;4286;-78
2022/03/30 11:05:10;;;;;;;18.63;12.40;;;;;;;11.67;55.85;99548.03;695161;28;1602;-78
2022/03/30 11:05:30;;;;;;;19.80;13.30;;;;;;;11.70;56.41;99557.53;697647;28;1726;-78
2022/03/30 11:06:05;;;;;;;19.83;13.38;;;;;;;11.63;56.83;99556.00;696738;28;1691;-77
2022/03/30 11:06:27;;;;;;;21.77;13.20;;;;;;;11.63;56.88;99556.00;699356;28;1397;-77
2022/03/30 11:06:54;;;;;;;20.88;13.40;;;;;;;11.59;57.01;99545.63;704354;28;1330;-77
2022/03/30 11:07:20;;;;;;;19.88;13.32;;;;;;;11.85;57.53;99551.03;703511;28;1379;-78
2022/03/30 11:07:42;;;;;;;18.80;12.95;;;;;;;11.87;56.24;99555.34;698657;28;4284;-78
2022/03/30 11:08:05;;;;;;;18.95;12.90;;;;;;;11.82;56.43;99559.81;697334;28;1603;-78
2022/03/30 11:08:34;;;;;;;20.23;13.27;;;;;;;11.67;56.95;99550.66;695052;28;1644;-77
2022/03/30 11:08:59;;;;;;;19.15;13.82;;;;;;;11.51;54.74;99555.44;695376;28;2190;-77
2022/03/30 11:09:23;;;;;;;20.13;13.98;;;;;;;11.46;56.26;99554.69;696257;28;1770;-78
2022/03/30 11:10:32;;;;;;;19.85;13.40;;;;;;;11.33;55.63;99542.84;697900;28;1741;-78
2022/03/30 11:10:53;;;;;;;20.08;12.80;;;;;;;11.56;55.65;99547.44;688392;28;4478;-78
2022/03/30 11:11:25;;;;;;;19.63;13.15;;;;;;;11.62;57.27;99549.06;696545;28;1421;-77
2022/03/30 11:11:59;;;;;;;20.52;12.70;;;;;;;11.57;57.66;99555.28;702899;28;1372;-77
2022/03/30 11:12:19;;;;;;;20.33;12.90;;;;;;;11.49;56.66;99553.75;702795;28;1365;-77
2022/03/30 11:13:13;;;;;;;19.97;12.97;;;;;;;11.50;54.39;99547.63;703235;28;8044;-78
2022/03/30 11:13:33;;;;;;;18.92;12.55;;;;;;;11.57;54.08;99544.81;690697;28;1674;-77
2022/03/30 11:14:25;;;;;;;19.13;12.80;;;;;;;11.40;54.13;99552.25;700101;28;4251;-77
2022/03/30 11:15:03;;;;;;;18.63;12.23;;;;;;;11.43;54.24;99543.47;702407;28;1703;-78
2022/03/30 11:15:26;;;;;;;19.70;12.60;;;;;;;11.58;54.26;99543.03;700885;28;1650;-78
2022/03/30 11:16:07;;;;;;;18.38;12.52;;;;;;;11.72;54.27;99537.44;697357;28;1984;-78
2022/03/30 11:16:48;;;;;;;17.70;12.10;;;;;;;11.66;54.72;99542.81;698556;28;1509;-78
2022/03/30 11:17:10;;;;;;;18.40;12.82;;;;;;;11.61;55.14;99544.72;696784;28;5855;-78
2022/03/30 11:17:35;;;;;;;19.02;12.75;;;;;;;11.64;56.07;99528.94;698230;28;1513;-78
2022/03/30 11:18:17;;;;;;;19.98;12.70;;;;;;;11.50;54.76;99532.78;699838;28;1959;-78
2022/03/30 11:18:56;;;;;;;19.55;12.75;;;;;;;11.66;54.58;99534.97;700922;28;1349;-78
2022/03/30 11:19:17;;;;;;;17.65;11.70;;;;;;;11.83;55.04;99538.00;701299;28;1452;-78
2022/03/30 11:19:46;;;;;;;18.45;12.07;;;;;;;11.86;55.85;99535.28;700581;28;1541;-78
2022/03/30 11:20:09;;;;;;;18.05;13.02;;;;;;;11.77;54.95;99538.19;699517;28;4878;-78
2022/03/30 11:20:30;;;;;;;20.05;13.30;;;;;;;11.71;55.25;99535.72;694475;28;3046;-78
2022/03/30 11:21:08;;;;;;;20.90;13.47;;;;;;;11.87;55.86;99531.75;694202;28;1119;-78
2022/03/30 11:21:30;;;;;;;18.20;13.02;;;;;;;12.04;55.42;99533.09;698279;28;1827;-78
2022/03/30 11:21:55;;;;;;;17.50;13.02;;;;;;;12.15;53.90;99535.41;697417;28;1247;-78
2022/03/30 11:22:21;;;;;;;18.92;12.40;;;;;;;12.19;53.72;99535.25;697106;28;6891;-78
2022/03/30 11:22:45;;;;;;;19.75;12.90;;;;;;;12.35;54.12;99537.41;687312;28;6356;-78
2022/03/30 11:23:21;;;;;;;19.63;13.35;;;;;;;12.21;54.74;99533.47;694990;28;6758;-78
2022/03/30 11:24:02;;;;;;;18.67;13.25;;;;;;;12.06;55.84;99533.91;696669;28;1649;-78
2022/03/30 11:24:24;;;;;;;19.08;13.27;;;;;;;11.99;55.52;99530.59;697911;28;1377;-78
2022/03/30 11:24:46;;;;;;;16.95;13.45;;;;;;;11.93;57.10;99526.38;696220;28;1843;-78
2022/03/30 11:25:08;;;;;;;18.10;13.00;;;;;;;11.86;57.61;99532.66;700387;28;1626;-78
2022/03/30 11:25:29;;;;;;;19.13;12.95;;;;;;;11.81;57.74;99528.47;695255;28;1578;-78
2022/03/30 11:25:51;;;;;;;20.05;12.93;;;;;;;11.84;54.70;99531.00;691589;28;6076;-78
2022/03/30 11:26:12;;;;;;;21.10;13.23;;;;;;;11.78;55.51;99529.41;692106;28;1871;-78
2022/03/30 11:26:47;;;;;;;25.43;13.43;;;;;;;11.76;56.97;99531.22;695813;28;7323;-78
2022/03/30 11:27:07;;;;;;;19.77;12.70;;;;;;;11.75;56.68;99526.88;697299;28;1374;-78
2022/03/30 11:27:34;;;;;;;19.23;12.90;;;;;;;11.74;55.74;99523.41;700733;28;1736;-78
2022/03/30 11:27:58;;;;;;;20.27;12.90;;;;;;;11.74;56.23;99527.75;697390;28;1382;-77
2022/03/30 11:28:18;;;;;;;19.75;13.02;;;;;;;11.75;58.08;99545.19;698943;28;1581;-78
2022/03/30 11:28:44;;;;;;;19.93;13.03;;;;;;;11.90;56.03;99530.81;696526;28;4588;-78
2022/03/30 11:29:45;;;;;;;24.10;13.07;;;;;;;12.33;53.71;99547.09;697303;28;1556;-78
2022/03/30 11:30:12;;;;;;;20.48;13.30;;;;;;;12.18;54.87;99528.28;695475;28;1434;-77
2022/03/30 11:30:38;;;;;;;20.63;13.60;;;;;;;11.98;54.92;99533.28;696651;28;1679;-77
2022/03/30 11:31:03;;;;;;;19.52;13.32;;;;;;;11.95;54.91;99525.47;695738;28;5603;-77
2022/03/30 11:31:27;;;;;;;21.73;14.07;;;;;;;11.96;56.10;99524.59;691970;28;1395;-77
2022/03/30 11:31:47;;;;;;;21.33;13.88;;;;;;;11.90;55.94;99522.97;693019;28;4342;-77
2022/03/30 11:32:23;;;;;;;22.77;14.00;;;;;;;11.83;55.27;99521.44;692928;28;1452;-77
2022/03/30 11:32:53;;;;;;;19.55;13.25;;;;;;;11.81;55.93;99529.34;697242;28;1398;-77
2022/03/30 11:33:24;;;;;;;21.50;14.15;;;;;;;11.71;56.26;99517.38;694528;28;1625;-78
2022/03/30 11:34:38;;;;;;;19.67;13.48;;;;;;;11.74;57.76;99514.66;700105;28;1444;-77
2022/03/30 11:35:01;;;;;;;19.00;13.25;;;;;;;11.90;57.28;99515.97;689099;28;6664;-77
2022/03/30 11:35:25;;;;;;;19.42;13.77;;;;;;;11.88;58.38;99516.91;692164;28;1788;-77
2022/03/30 11:35:48;;;;;;;21.13;13.85;;;;;;;11.82;57.37;99515.31;691298;28;3160;-78
2022/03/30 11:36:09;;;;;;;21.40;13.82;;;;;;;11.84;56.83;99524.00;696099;28;1424;-77
2022/03/30 11:36:29;;;;;;;22.95;14.25;;;;;;;11.85;56.96;99511.75;700208;28;1604;-78
2022/03/30 11:36:53;;;;;;;21.02;13.90;;;;;;;11.82;56.08;99510.09;703400;28;1489;-77
2022/03/30 11:37:13;;;;;;;19.40;13.52;;;;;;;11.80;56.45;99511.91;697657;28;1338;-77
2022/03/30 11:37:38;;;;;;;20.27;14.20;;;;;;;12.03;56.30;99511.28;696943;28;4491;-78
2022/03/30 11:38:22;;;;;;;18.95;13.65;;;;;;;12.07;55.42;99517.28;695464;28;1721;-77
2022/03/30 11:38:48;;;;;;;19.77;13.63;;;;;;;12.13;56.08;99511.88;694292;28;2461;-77
2022/03/30 11:39:14;;;;;;;22.35;14.57;;;;;;;12.04;56.42;99510.34;695921;28;1348;-78
2022/03/30 11:39:35;;;;;;;20.75;13.93;;;;;;;11.95;57.15;99515.00;697293;28;7032;-77
2022/03/30 11:40:08;;;;;;;19.30;13.23;;;;;;;11.84;55.26;99505.66;696147;28;2402;-77
2022/03/30 11:40:29;;;;;;;19.80;13.85;;;;;;;11.82;58.09;99517.09;696909;28;1470;-77
2022/03/30 11:40:56;;;;;;;20.83;13.95;;;;;;;11.80;58.11;99503.19;695619;28;4328;-77
2022/03/30 11:41:19;;;;;;;19.77;13.45;;;;;;;11.76;56.68;99508.50;697388;28;1480;-78
2022/03/30 11:41:40;;;;;;;21.40;13.30;;;;;;;11.79;56.67;99501.47;697555;28;1684;-77
2022/03/30 11:42:01;;;;;;;21.48;13.68;;;;;;;11.80;56.91;99506.66;694312;28;1228;-77
2022/03/30 11:42:21;;;;;;;21.73;13.60;;;;;;;11.85;56.70;99502.16;697665;28;2428;-77
2022/03/30 11:42:45;;;;;;;20.10;13.57;;;;;;;11.81;55.57;99504.88;699460;28;1566;-77
2022/03/30 11:43:05;;;;;;;19.60;13.45;;;;;;;11.76;56.25;99507.66;699059;28;1669;-77
2022/03/30 11:43:29;;;;;;;18.77;13.27;;;;;;;11.72;55.83;99508.63;697934;28;1312;-77
2022/03/30 11:45:21;;;;;;;20.38;14.10;;;;;;;11.49;56.31;99519.72;699029;28;1965;-78
2022/03/30 11:45:41;;;;;;;18.10;13.57;;;;;;;11.50;56.49;99501.38;701655;28;1973;-78
2022/03/30 11:46:06;;;;;;;20.38;13.32;;;;;;;11.63;55.96;99533.31;705141;28;1347;-78
2022/03/30 11:46:38;;;;;;;21.48;14.48;;;;;;;11.58;56.33;99520.34;701563;28;4388;-77
2022/03/30 11:46:58;;;;;;;19.40;13.50;;;;;;;11.57;56.84;99495.09;700407;28;2153;-78
2022/03/30 11:47:19;;;;;;;19.40;12.97;;;;;;;11.72;55.81;99516.50;698344;28;1232;-78
2022/03/30 11:47:44;;;;;;;19.93;13.20;;;;;;;11.84;55.64;99507.44;695584;28;1668;-78
2022/03/30 11:48:07;;;;;;;20.45;13.85;;;;;;;11.68;55.12;99505.22;698236;28;1563;-78
2022/03/30 11:48:35;;;;;;;20.33;13.65;;;;;;;11.63;56.02;99507.13;698654;28;1686;-78
2022/03/30 11:49:00;;;;;;;19.02;13.70;;;;;;;11.58;57.35;99504.63;697935;28;1593;-78
2022/03/30 11:49:20;;;;;;;19.63;13.45;;;;;;;11.59;57.55;99501.13;695354;28;1446;-78
2022/03/30 11:49:51;;;;;;;20.87;13.63;;;;;;;11.71;57.59;99499.06;693866;28;4434;-77
2022/03/30 11:50:17;;;;;;;19.80;13.13;;;;;;;11.95;55.94;99501.91;695110;28;1151;-78
2022/03/30 11:50:48;;;;;;;18.77;13.38;;;;;;;11.83;55.44;99505.72;697444;28;1380;-78
2022/03/30 11:51:08;;;;;;;19.70;13.43;;;;;;;11.83;55.06;99498.72;693452;28;1615;-77
2022/03/30 11:51:29;;;;;;;20.83;13.87;;;;;;;11.87;55.43;99496.88;698340;28;2053;-78
2022/03/30 11:51:52;;;;;;;20.60;13.47;;;;;;;11.85;56.87;99506.53;697745;28;1666;-78
2022/03/30 11:52:23;;;;;;;19.85;13.23;;;;;;;11.84;56.39;99500.44;695871;28;1538;-78
2022/03/30 11:52:53;;;;;;;19.75;13.00;;;;;;;11.83;55.05;99497.88;697577;28;4428;-78
2022/03/30 11:53:22;;;;;;;18.33;12.77;;;;;;;11.85;55.24;99506.53;703454;28;1213;-78
2022/03/30 11:53:43;;;;;;;21.15;12.98;;;;;;;12.07;55.73;99494.56;698410;28;1778;-78
2022/03/30 11:54:18;;;;;;;19.53;13.03;;;;;;;11.98;54.43;99497.44;694775;28;1713;-78
2022/03/30 11:54:48;;;;;;;21.50;13.13;;;;;;;11.88;55.70;99494.22;695531;28;1587;-78
2022/03/30 11:55:09;;;;;;;20.02;12.80;;;;;;;11.91;55.49;99499.34;698152;28;2003;-78
2022/03/30 11:55:32;;;;;;;20.13;13.70;;;;;;;11.91;55.88;99494.13;699788;28;4273;-78
2022/03/30 11:55:57;;;;;;;17.95;13.30;;;;;;;11.89;54.05;99501.16;695833;28;1846;-78
2022/03/30 11:56:18;;;;;;;19.90;13.45;;;;;;;11.84;54.39;99492.59;698011;28;2410;-78
2022/03/30 11:56:40;;;;;;;20.60;13.77;;;;;;;11.93;55.22;99492.31;698512;28;5738;-78
2022/03/30 11:57:03;;;;;;;19.02;12.68;;;;;;;12.06;54.99;99499.84;701641;28;1239;-78
2022/03/30 11:57:24;;;;;;;21.48;13.00;;;;;;;12.22;55.00;99490.59;699466;28;1266;-78
2022/03/30 11:57:44;;;;;;;21.42;13.45;;;;;;;12.39;53.35;99497.97;695440;28;1289;-78
2022/03/30 11:58:05;;;;;;;21.60;13.60;;;;;;;12.53;53.01;99494.94;691817;28;1640;-78
2022/03/30 11:58:37;;;;;;;19.63;12.75;;;;;;;12.63;52.72;99492.88;696017;28;1468;-78
2022/03/30 11:58:57;;;;;;;22.02;13.90;;;;;;;12.60;53.00;99492.97;698066;28;4885;-77
2022/03/30 11:59:19;;;;;;;19.50;13.43;;;;;;;12.44;54.05;99495.19;695899;28;1268;-78
2022/03/30 11:59:39;;;;;;;21.73;12.85;;;;;;;12.36;54.39;99486.72;697780;28;2057;-79
2022/03/30 12:00:02;;;;;;;21.90;12.93;;;;;;;12.33;55.41;99486.81;698409;28;1431;-77
2022/03/30 12:00:33;;;;;;;19.50;13.23;;;;;;;12.32;56.35;99495.56;695919;28;1584;-77
2022/03/30 12:00:56;;;;;;;19.20;13.35;;;;;;;12.22;54.88;99490.59;694620;28;1403;-77
2022/03/30 12:01:21;;;;;;;20.50;13.00;;;;;;;12.42;54.35;99492.63;693855;28;1553;-78
2022/03/30 12:01:41;;;;;;;19.70;13.40;;;;;;;12.54;53.32;99485.28;695300;28;1639;-78
2022/03/30 12:02:03;;;;;;;19.50;13.47;;;;;;;12.39;52.37;99495.34;685990;28;6316;-78
2022/03/30 12:02:29;;;;;;;19.20;13.10;;;;;;;12.21;53.12;99485.41;691512;28;5480;-78
2022/03/30 12:02:51;;;;;;;19.73;13.57;;;;;;;12.24;54.20;99491.44;696091;28;2192;-78
2022/03/30 12:03:11;;;;;;;19.95;13.25;;;;;;;12.20;53.82;99487.19;695716;28;1649;-78
2022/03/30 12:03:32;;;;;;;21.87;13.57;;;;;;;12.15;54.62;99486.47;705686;27;1330;-78
2022/03/30 12:03:55;;;;;;;20.52;13.73;;;;;;;12.09;54.66;99489.28;701797;28;1253;-78
2022/03/30 12:04:15;;;;;;;19.13;13.18;;;;;;;11.95;53.97;99494.94;701865;28;1573;-78
2022/03/30 12:04:35;;;;;;;19.50;13.37;;;;;;;11.82;53.47;99489.13;702618;28;1075;-78
2022/03/30 12:04:58;;;;;;;19.60;13.40;;;;;;;11.86;53.54;99487.28;701259;28;2007;-78
2022/03/30 12:05:21;;;;;;;18.30;12.38;;;;;;;11.93;53.30;99489.72;701737;28;4752;-78
2022/03/30 12:05:42;;;;;;;19.95;13.57;;;;;;;11.80;53.48;99490.09;701956;28;1918;-78
2022/03/30 12:06:05;;;;;;;21.53;13.17;;;;;;;11.96;55.22;99488.75;698614;28;1486;-78
2022/03/30 12:06:26;;;;;;;18.92;12.65;;;;;;;12.03;53.22;99485.09;695610;28;1148;-78
2022/03/30 12:06:47;;;;;;;19.50;13.20;;;;;;;12.07;54.03;99480.59;696373;28;1360;-78
2022/03/30 12:07:19;;;;;;;18.90;12.77;;;;;;;12.06;57.47;99484.13;693766;28;1523;-78
2022/03/30 12:07:40;;;;;;;19.80;12.95;;;;;;;11.91;54.07;99486.25;695626;28;2776;-77
2022/03/30 12:08:02;;;;;;;22.08;12.93;;;;;;;11.88;54.63;99482.84;697677;28;4276;-78
2022/03/30 12:08:24;;;;;;;20.75;12.70;;;;;;;11.90;55.13;99481.91;699734;28;1260;-78
2022/03/30 12:08:48;;;;;;;18.00;12.55;;;;;;;11.88;54.47;99475.00;700891;28;1466;-78
2022/03/30 12:09:15;;;;;;;19.92;12.77;;;;;;;11.86;55.61;99485.53;703413;28;1405;-78
2022/03/30 12:09:47;;;;;;;20.05;12.48;;;;;;;11.88;54.20;99480.25;702797;28;1935;-77
2022/03/30 12:10:16;;;;;;;18.67;12.52;;;;;;;11.89;54.39;99481.97;701816;28;6969;-77
2022/03/30 12:10:36;;;;;;;17.58;12.27;;;;;;;11.91;54.57;99478.41;698234;28;6529;-78
2022/03/30 12:10:58;;;;;;;18.95;12.02;;;;;;;11.96;54.91;99480.91;699921;28;2259;-78
2022/03/30 12:11:20;;;;;;;18.17;12.48;;;;;;;11.98;55.16;99475.66;698031;28;5370;-78
2022/03/30 12:11:40;;;;;;;16.52;12.85;;;;;;;11.99;55.71;99482.59;695884;28;2397;-78
2022/03/30 12:12:01;;;;;;;17.07;12.67;;;;;;;11.95;54.58;99480.97;696456;28;1581;-78
2022/03/30 12:12:35;;;;;;;18.23;12.43;;;;;;;11.98;55.70;99475.66;693118;28;1988;-77
2022/03/30 12:12:56;;;;;;;18.63;12.10;;;;;;;12.19;53.32;99482.84;695868;28;1594;-78
2022/03/30 12:13:23;;;;;;;17.27;11.60;;;;;;;12.14;52.26;99478.66;696001;28;2927;-78
2022/03/30 12:13:44;;;;;;;18.98;12.63;;;;;;;12.13;52.76;99480.44;693721;28;6354;-78
2022/03/30 12:14:06;;;;;;;17.80;11.83;;;;;;;12.06;52.48;99486.75;693613;28;1223;-78
2022/03/30 12:14:27;;;;;;;18.02;12.32;;;;;;;12.04;54.51;99476.31;693756;28;2365;-78
2022/03/30 12:14:56;;;;;;;18.33;12.55;;;;;;;12.06;53.17;99471.88;692984;28;1865;-78
2022/03/30 12:15:19;;;;;;;17.88;12.57;;;;;;;12.11;52.03;99476.13;694551;28;1593;-78
2022/03/30 12:15:39;;;;;;;17.65;12.70;;;;;;;12.01;52.17;99481.63;696338;28;1565;-78
2022/03/30 12:16:05;;;;;;;18.97;12.33;;;;;;;12.03;53.52;99479.84;692812;28;1282;-78
2022/03/30 12:16:32;;;;;;;18.50;12.32;;;;;;;12.25;53.62;99477.44;695050;28;4265;-78
2022/03/30 12:16:58;;;;;;;18.67;12.27;;;;;;;12.41;51.77;99474.34;698222;28;1302;-78
2022/03/30 12:17:26;;;;;;;19.02;12.32;;;;;;;12.30;52.47;99472.03;696662;28;1614;-78
2022/03/30 12:17:58;;;;;;;17.60;12.35;;;;;;;12.23;53.15;99476.59;694349;28;1385;-78
2022/03/30 12:18:18;;;;;;;17.63;11.98;;;;;;;12.11;53.80;99482.22;694805;28;1116;-78
2022/03/30 12:18:43;;;;;;;17.92;11.90;;;;;;;12.11;53.82;99482.22;692463;28;7562;-78
2022/03/30 12:19:04;;;;;;;18.10;11.90;;;;;;;12.36;54.51;99481.47;698688;28;1745;-78
2022/03/30 12:19:24;;;;;;;17.70;11.93;;;;;;;12.53;54.27;99478.31;695351;28;4322;-78
2022/03/30 12:19:49;;;;;;;17.17;11.80;;;;;;;12.54;52.20;99478.25;690791;28;1877;-77
2022/03/30 12:20:21;;;;;;;17.38;11.85;;;;;;;12.50;52.15;99474.06;692556;28;1391;-77
2022/03/30 12:20:46;;;;;;;16.52;11.57;;;;;;;12.48;51.95;99475.84;695630;28;1064;-78
2022/03/30 12:21:06;;;;;;;16.00;11.32;;;;;;;12.56;52.13;99483.50;698214;28;1316;-78
2022/03/30 12:21:29;;;;;;;15.70;11.37;;;;;;;12.66;51.23;99479.66;699197;28;1374;-78
2022/03/30 12:21:49;;;;;;;17.42;11.63;;;;;;;12.67;50.72;99477.88;697885;28;1696;-79
2022/03/30 12:22:09;;;;;;;18.03;11.80;;;;;;;12.76;50.22;99467.94;696537;28;1244;-77
2022/03/30 12:22:30;;;;;;;17.63;11.60;;;;;;;12.89;50.21;99471.03;698515;28;4307;-77
2022/03/30 12:23:10;;;;;;;16.63;12.20;;;;;;;12.98;50.73;99471.63;695461;28;1672;-78
2022/03/30 12:23:33;;;;;;;16.35;11.48;;;;;;;12.88;49.98;99466.69;696262;28;2282;-78
2022/03/30 12:23:53;;;;;;;18.65;12.15;;;;;;;12.82;50.30;99468.66;694929;28;1207;-77
2022/03/30 12:24:22;;;;;;;16.67;12.05;;;;;;;12.73;50.88;99460.19;694282;28;939;-78
2022/03/30 12:24:42;;;;;;;17.02;11.85;;;;;;;12.69;52.65;99469.06;695337;28;1377;-78
2022/03/30 12:25:23;;;;;;;18.03;11.70;;;;;;;12.65;51.46;99466.59;693492;28;1497;-77
2022/03/30 12:25:44;;;;;;;16.73;12.05;;;;;;;12.64;52.21;99470.13;694146;28;4849;-77
2022/03/30 12:26:14;;;;;;;17.03;11.67;;;;;;;12.60;52.66;99467.59;698640;28;1845;-78
2022/03/30 12:26:34;;;;;;;16.55;11.40;;;;;;;12.63;52.07;99473.63;695593;28;951;-78
2022/03/30 12:26:59;;;;;;;16.37;11.77;;;;;;;12.53;50.86;99476.56;695525;28;966;-78
2022/03/30 12:27:21;;;;;;;17.90;12.20;;;;;;;12.60;52.24;99478.09;694969;28;7348;-78
2022/03/30 12:27:41;;;;;;;16.00;11.48;;;;;;;12.73;51.58;99467.19;698017;28;1591;-77
2022/03/30 12:28:02;;;;;;;20.47;11.93;;;;;;;12.75;50.32;99478.47;697922;28;1495;-78
2022/03/30 12:28:33;;;;;;;17.02;11.05;;;;;;;13.04;49.29;99463.53;696580;28;4340;-78
2022/03/30 12:29:07;;;;;;;17.27;11.30;;;;;;;13.11;50.47;99465.03;698775;28;1057;-78
2022/03/30 12:29:31;;;;;;;18.25;11.73;;;;;;;13.05;51.29;99470.50;698372;28;1509;-77
2022/03/30 12:29:56;;;;;;;17.17;11.48;;;;;;;13.10;51.45;99465.97;698874;28;2069;-77
2022/03/30 12:30:17;;;;;;;17.10;11.02;;;;;;;13.05;51.27;99460.03;698591;28;1179;-77
2022/03/30 12:30:38;;;;;;;18.63;11.50;;;;;;;13.00;51.04;99464.56;698363;28;1446;-78
2022/03/30 12:31:00;;;;;;;16.90;11.50;;;;;;;12.85;50.24;99466.81;698630;28;1409;-78
2022/03/30 12:31:21;;;;;;;16.40;11.30;;;;;;;12.80;49.93;99473.94;695162;28;4550;-78
2022/03/30 12:31:53;;;;;;;17.30;11.87;;;;;;;12.73;49.74;99461.97;697580;28;1313;-78
2022/03/30 12:32:15;;;;;;;18.40;11.30;;;;;;;12.70;51.54;99464.69;700061;28;2045;-78
2022/03/30 12:32:36;;;;;;;18.00;11.38;;;;;;;12.69;50.91;99468.22;700295;28;1438;-78
2022/03/30 12:32:57;;;;;;;17.25;11.88;;;;;;;12.63;50.42;99471.00;700772;28;1289;-78
2022/03/30 12:33:17;;;;;;;16.33;11.48;;;;;;;12.53;48.99;99467.84;701164;28;1372;-78
2022/03/30 12:33:43;;;;;;;18.47;12.17;;;;;;;12.50;48.53;99468.81;701067;28;1149;-77
2022/03/30 12:34:18;;;;;;;19.75;12.20;;;;;;;12.40;50.91;99468.22;702432;28;1046;-77
2022/03/30 12:34:40;;;;;;;16.13;11.00;;;;;;;12.46;51.78;99461.97;698979;28;4786;-78
2022/03/30 12:35:13;;;;;;;16.85;11.35;;;;;;;12.54;50.28;99467.78;701732;28;2381;-77
2022/03/30 12:35:37;;;;;;;16.73;11.13;;;;;;;12.55;50.06;99460.78;698516;28;1583;-78
2022/03/30 12:35:57;;;;;;;17.20;10.70;;;;;;;12.64;49.07;99464.88;696110;28;1288;-78
2022/03/30 12:36:20;;;;;;;17.38;11.60;;;;;;;12.66;48.79;99455.22;696772;28;1452;-78
2022/03/30 12:36:53;;;;;;;16.02;11.10;;;;;;;12.76;48.73;99459.22;697023;28;1147;-78
2022/03/30 12:37:21;;;;;;;14.55;11.02;;;;;;;12.78;49.30;99453.03;694678;28;1314;-78
2022/03/30 12:37:45;;;;;;;14.52;10.75;;;;;;;12.77;47.59;99456.56;697195;28;5142;-78
2022/03/30 12:38:13;;;;;;;15.07;10.65;;;;;;;12.73;47.92;99457.56;703769;28;900;-78
2022/03/30 12:38:33;;;;;;;15.60;10.63;;;;;;;12.70;50.36;99448.97;699997;28;1481;-78
2022/03/30 12:38:54;;;;;;;14.83;10.63;;;;;;;12.66;49.03;99463.91;697751;28;1554;-78
2022/03/30 12:39:17;;;;;;;17.08;10.77;;;;;;;12.63;51.72;99468.41;696949;28;1271;-77
2022/03/30 12:39:41;;;;;;;16.17;10.93;;;;;;;12.59;49.89;99451.94;694907;28;1614;-78
2022/03/30 12:40:15;;;;;;;14.70;10.48;;;;;;;12.76;48.47;99448.75;689671;28;1496;-78
2022/03/30 12:40:40;;;;;;;14.32;10.32;;;;;;;12.76;49.16;99454.81;694882;28;4282;-78
2022/03/30 12:41:01;;;;;;;16.08;10.48;;;;;;;12.70;48.35;99454.19;698297;28;1275;-78
2022/03/30 12:41:24;;;;;;;14.57;10.30;;;;;;;12.63;47.78;99452.66;701781;28;1522;-78
2022/03/30 12:41:54;;;;;;;15.13;10.38;;;;;;;12.71;48.37;99450.66;699072;28;1432;-78
2022/03/30 12:42:23;;;;;;;17.08;10.65;;;;;;;12.89;48.59;99457.03;699943;28;1600;-78
2022/03/30 12:42:44;;;;;;;16.23;10.65;;;;;;;12.81;46.68;99457.31;700530;28;2215;-78
2022/03/30 12:43:06;;;;;;;17.17;10.77;;;;;;;12.67;47.31;99462.16;699011;28;1323;-78
2022/03/30 12:43:28;;;;;;;14.98;10.18;;;;;;;12.66;48.80;99456.06;700318;28;4285;-78
2022/03/30 12:44:02;;;;;;;13.30;9.75;;;;;;;12.54;47.35;99454.66;695120;28;1475;-78
2022/03/30 12:44:23;;;;;;;15.95;10.48;;;;;;;12.50;47.59;99447.84;695231;28;5939;-78
2022/03/30 12:44:48;;;;;;;15.87;10.50;;;;;;;12.72;48.29;99442.75;698196;28;1983;-78